Time;durP1;ratioP1;P1;durP2;ratioP2;P2;SDS_P1;SDS_P2;PMS_P1;PMS_P2;Temp;Humidity;BMP_temperature;BMP_pressure;BME280_temperature;BME280_humidity;BME280_pressure;Samples;Min_cycle;Max_cycle;Signal;HPM_P1;HPM_P2
2023/03/28 00:02:34;;;;;;;2.10;0.90;;;;;;;0.85;72.08;100386.36;104348;1271;74122;-56
2023/03/28 00:06:23;;;;;;;3.30;1.70;;;;;;;0.78;72.30;100378.41;104550;1272;69310;-59
2023/03/28 00:10:12;;;;;;;6.80;1.80;;;;;;;0.74;72.57;100373.25;104478;1269;69397;-58
2023/03/28 00:14:01;;;;;;;4.40;1.30;;;;;;;0.70;72.88;100377.89;105309;1257;73161;-57
2023/03/28 00:17:51;;;;;;;4.90;1.70;;;;;;;0.71;72.96;100374.97;105339;1257;82554;-59
2023/03/28 00:21:40;;;;;;;4.00;1.60;;;;;;;0.68;73.15;100384.24;105347;1257;72331;-57
2023/03/28 00:25:20;;;;;;;;;;;;;;;;;;;;;
2023/03/28 00:29:10;;;;;;;6.20;1.70;;;;;;;0.66;73.69;100386.12;105420;1257;69201;-58
2023/03/28 00:32:59;;;;;;;4.50;2.20;;;;;;;0.70;73.57;100382.18;105491;1254;74106;-56
2023/03/28 00:36:40;;;;;;;3.00;1.20;;;;;;;0.76;74.10;100373.77;105278;1257;82583;-59
2023/03/28 00:40:20;;;;;;;;;;;;;;;;;;;;;
2023/03/28 00:44:16;;;;;;;4.70;1.30;;;;;;;0.87;74.34;100373.63;105055;1257;69090;-59
2023/03/28 00:48:05;;;;;;;5.30;1.90;;;;;;;0.89;74.41;100368.30;101227;1259;5539299;-61
2023/03/28 00:51:55;;;;;;;3.60;1.60;;;;;;;0.88;74.27;100364.84;104924;1263;72025;-60
2023/03/28 00:55:43;;;;;;;5.10;2.40;;;;;;;0.89;74.53;100361.93;104923;1266;83527;-59
2023/03/28 00:59:33;;;;;;;3.20;1.30;;;;;;;0.92;74.36;100357.64;104936;1261;73782;-59
2023/03/28 01:03:26;;;;;;;5.60;1.70;;;;;;;0.94;74.46;100360.91;104786;1272;69221;-58
2023/03/28 01:07:12;;;;;;;4.80;1.70;;;;;;;0.94;74.59;100363.65;104872;1261;69257;-59
2023/03/28 01:10:52;;;;;;;;;;;;;;;;;;;;;
2023/03/28 01:14:47;;;;;;;4.20;1.30;;;;;;;0.87;74.87;100361.75;104806;1263;83642;-62
2023/03/28 01:22:27;;;;;;;3.40;1.50;;;;;;;0.89;74.66;100365.02;104832;1263;69367;-62
2023/03/28 01:26:42;;;;;;;;;;;;;;;;;;;;;
2023/03/28 01:31:00;;;;;;;1.50;1.00;;;;;;;0.87;75.01;100356.59;103918;1275;74118;-61
2023/03/28 01:35:32;;;;;;;3.20;1.40;;;;;;;0.85;74.90;100361.93;102877;1286;84197;-57
2023/03/28 01:43:33;;;;;;;3.70;1.40;;;;;;;0.89;74.79;100359.01;101727;1294;602546;-57
2023/03/28 01:51:32;;;;;;;3.90;1.60;;;;;;;0.97;75.31;100348.52;103266;1281;69434;-60
2023/03/28 01:55:37;;;;;;;;;;;;;;;;;;;;;
2023/03/28 02:03:32;;;;;;;3.90;1.50;;;;;;;1.02;75.51;100351.80;102228;1289;600278;-55
2023/03/28 02:07:19;;;;;;;;;;;;;;;;;;;;;
2023/03/28 02:11:21;;;;;;;5.10;1.70;;;;;;;1.07;75.80;100356.63;105091;1257;69231;-59
2023/03/28 02:15:29;;;;;;;4.20;1.60;;;;;;;1.08;75.84;100362.30;105077;1257;72657;-59
2023/03/28 02:19:30;;;;;;;3.80;2.10;;;;;;;1.10;75.96;100365.90;102646;1260;81678;-60
2023/03/28 02:23:32;;;;;;;3.10;1.70;;;;;;;1.15;76.08;100365.92;104967;1261;72199;-60
2023/03/28 02:27:47;;;;;;;2.30;1.50;;;;;;;1.25;75.84;100364.73;103719;1280;69610;-55
2023/03/28 02:30:48;;;;;;;;;;;;;;;;;;;;;
2023/03/28 02:46:52;;;;;;;4.30;2.50;;;;;;;1.20;75.67;100364.89;104583;1266;69231;-59
2023/03/28 02:54:49;;;;;;;2.30;1.20;;;;;;;1.29;75.50;100374.36;103847;1277;72928;-60
2023/03/28 03:02:50;;;;;;;4.30;1.30;;;;;;;1.27;75.14;100382.63;103140;1283;69268;-59
2023/03/28 03:14:03;;;;;;;;;;;;;;;;;;;;;
2023/03/28 03:17:43;;;;;;;;;;;;;;;;;;;;;
2023/03/28 03:39:37;;;;;;;2.00;0.50;;;;;;;1.06;73.72;100434.74;103118;1281;69383;-62
2023/03/28 03:47:50;;;;;;;1.60;0.60;;;;;;;1.02;73.47;100457.11;103337;1284;72157;-56
2023/03/28 03:58:28;;;;;;;;;;;;;;;;;;;;;
2023/03/28 04:02:06;;;;;;;;;;;;;;;;;;;;;
2023/03/28 04:05:53;;;;;;;;;;;;;;;;;;;;;
2023/03/28 04:21:15;;;;;;;1.60;0.60;;;;;;;0.74;72.95;100509.30;101762;1297;600964;-60
2023/03/28 04:25:04;;;;;;;1.30;0.60;;;;;;;0.69;72.34;100518.89;104359;1272;69235;-61
2023/03/28 04:28:59;;;;;;;0.60;0.40;;;;;;;0.63;72.28;100515.62;104348;1267;69181;-56
2023/03/28 04:36:33;;;;;;;2.20;0.70;;;;;;;0.59;72.23;100524.88;100618;1266;82964;-60
2023/03/28 04:44:13;;;;;;;2.30;0.80;;;;;;;0.55;71.93;100537.05;103972;1276;69230;-57
2023/03/28 04:48:30;;;;;;;3.70;1.00;;;;;;;0.56;71.93;100545.83;101560;1297;602637;-61
2023/03/28 04:56:12;;;;;;;2.00;0.70;;;;;;;0.59;71.90;100559.27;104082;1276;69320;-59
2023/03/28 04:59:51;;;;;;;1.00;0.70;;;;;;;0.57;71.98;100564.23;104235;1271;72542;-56
2023/03/28 05:07:30;;;;;;;5.80;2.00;;;;;;;0.53;71.85;100588.29;104727;1261;69108;-61
2023/03/28 05:11:05;;;;;;;;;;;;;;;;;;;;;
2023/03/28 05:14:39;;;;;;;;;;;;;;;;;;;;;
2023/03/28 05:18:23;;;;;;;1.40;0.80;;;;;;;0.51;71.69;100599.96;104494;1268;82414;-53
2023/03/28 05:25:57;;;;;;;2.30;0.70;;;;;;;0.62;71.83;100606.74;103919;1276;69197;-57
2023/03/28 05:29:44;;;;;;;3.40;1.70;;;;;;;0.59;71.60;100614.64;104065;1273;69299;-55
2023/03/28 05:33:20;;;;;;;3.70;0.90;;;;;;;0.56;71.53;100620.11;103957;1273;73506;-56
2023/03/28 05:37:09;;;;;;;3.00;0.90;;;;;;;0.56;71.42;100629.91;104070;1273;82507;-52
2023/03/28 05:41:05;;;;;;;1.80;0.90;;;;;;;0.52;71.31;100628.17;104114;1274;73720;-54
2023/03/28 05:44:55;;;;;;;2.00;0.80;;;;;;;0.46;71.28;100636.54;103972;1274;69180;-58
2023/03/28 05:48:57;;;;;;;4.30;1.90;;;;;;;0.38;71.13;100646.45;104423;1273;69630;-56
2023/03/28 05:52:02;;;;;;;2.00;0.90;;;;;;;0.35;71.02;100653.47;104488;1268;73329;-51
2023/03/28 05:55:24;;;;;;;1.40;0.90;;;;;;;0.42;71.01;100660.23;104755;1265;81627;-52
2023/03/28 05:58:48;;;;;;;;;;;;;;;;;;;;;
2023/03/28 06:01:48;;;;;;;;;;;;;;;;;;;;;
2023/03/28 06:05:24;;;;;;;;;;;;;;;;;;;;;
2023/03/28 06:08:51;;;;;;;3.50;1.00;;;;;;;0.34;71.29;100690.59;104804;1264;72286;-51
2023/03/28 06:11:58;;;;;;;3.50;1.40;;;;;;;0.33;71.46;100690.73;105022;1259;83433;-48
2023/03/28 06:15:38;;;;;;;3.10;1.10;;;;;;;0.35;71.75;100692.14;105069;1264;73689;-51
2023/03/28 06:18:22;;;;;;;2.50;1.00;;;;;;;0.36;71.47;100701.09;104941;1264;69883;-50
2023/03/28 06:21:38;;;;;;;2.70;1.00;;;;;;;0.36;71.36;100707.64;105307;1258;69851;-49
2023/03/28 06:24:44;;;;;;;3.10;1.20;;;;;;;0.33;71.22;100705.20;105244;1264;72648;-51
2023/03/28 06:32:03;;;;;;;;;;;;;;;;;;;;;
2023/03/28 06:35:44;;;;;;;4.30;1.20;;;;;;;0.28;71.67;100715.27;104926;1260;69839;-52
2023/03/28 06:39:13;;;;;;;;;;;;;;;;;;;;;
2023/03/28 06:42:19;;;;;;;;;;;;;;;;;;;;;
2023/03/28 06:45:36;;;;;;;2.70;0.90;;;;;;;0.34;71.39;100728.23;105196;1261;83540;-50
2023/03/28 06:49:14;;;;;;;;;;;;;;;;;;;;;
2023/03/28 06:52:44;;;;;;;;;;;;;;;;;;;;;
2023/03/28 06:56:05;;;;;;;1.90;1.10;;;;;;;0.72;71.55;100758.16;104994;1261;69934;-51
2023/03/28 06:59:33;;;;;;;;;;;;;;;;;;;;;
2023/03/28 07:02:36;;;;;;;;;;;;;;;;;;;;;
2023/03/28 07:06:27;;;;;;;1.90;1.10;;;;;;;1.03;71.35;100773.40;105139;1261;75405;-52
2023/03/28 07:09:42;;;;;;;1.90;1.10;;;;;;;1.11;71.35;100771.56;105235;1260;69910;-52
2023/03/28 07:12:47;;;;;;;;;;;;;;;;;;;;;
2023/03/28 07:16:24;;;;;;;2.00;1.30;;;;;;;1.02;70.92;100785.95;105071;1258;73581;-54
2023/03/28 07:19:49;;;;;;;2.20;1.10;;;;;;;1.10;71.04;100791.86;104885;1261;83357;-51
2023/03/28 07:22:54;;;;;;;2.50;1.40;;;;;;;1.27;71.36;100792.67;104994;1262;73694;-53
2023/03/28 07:29:19;;;;;;;3.00;0.90;;;;;;;1.41;70.81;100798.80;105025;1261;69780;-51
2023/03/28 07:32:16;;;;;;;4.00;1.10;;;;;;;1.33;70.04;100806.66;105407;1261;72361;-51
2023/03/28 07:35:11;;;;;;;3.40;1.00;;;;;;;1.35;70.33;100813.23;105037;1261;82771;-54
2023/03/28 07:38:26;;;;;;;1.80;0.80;;;;;;;1.52;70.28;100816.61;105066;1265;72293;-50
2023/03/28 07:41:33;;;;;;;1.20;0.90;;;;;;;1.69;70.12;100820.70;105165;1261;69210;-50
2023/03/28 07:44:55;;;;;;;2.90;0.90;;;;;;;1.73;69.56;100827.95;105007;1264;69792;-54
2023/03/28 07:48:30;;;;;;;;;;;;;;;;;;;;;
2023/03/28 07:52:04;;;;;;;2.90;1.00;;;;;;;1.98;69.23;100836.52;105191;1261;83155;-55
2023/03/28 07:55:45;;;;;;;;;;;;;;;;;;;;;
2023/03/28 07:59:12;;;;;;;1.00;0.60;;;;;;;2.23;68.24;100834.21;105094;1263;69269;-53
2023/03/28 08:02:40;;;;;;;1.80;0.90;;;;;;;2.29;68.15;100833.03;105080;1261;69228;-54
2023/03/28 08:05:57;;;;;;;1.50;1.20;;;;;;;2.40;67.92;100839.80;105320;1260;72392;-53
2023/03/28 08:09:12;;;;;;;;;;;;;;;;;;;;;
2023/03/28 08:13:02;;;;;;;3.20;1.10;;;;;;;2.20;66.72;100847.66;105105;1259;73869;-55
2023/03/28 08:16:29;;;;;;;0.90;0.70;;;;;;;2.26;66.98;100841.13;105130;1261;69127;-54
2023/03/28 08:20:20;;;;;;;1.80;1.00;;;;;;;2.45;67.07;100838.27;105022;1261;69282;-57
2023/03/28 08:24:05;;;;;;;;;;;;;;;;;;;;;
2023/03/28 08:27:56;;;;;;;2.80;0.90;;;;;;;2.60;66.56;100843.84;105024;1261;83837;-60
2023/03/28 08:31:36;;;;;;;3.50;1.00;;;;;;;2.31;66.05;100863.05;104774;1261;73977;-61
2023/03/28 08:35:26;;;;;;;2.70;1.20;;;;;;;1.74;66.58;100857.76;105008;1259;69079;-57
2023/03/28 08:39:15;;;;;;;3.50;0.90;;;;;;;1.50;66.62;100867.77;105011;1261;69141;-57
2023/03/28 08:50:57;;;;;;;3.00;1.30;;;;;;;1.69;68.12;100881.50;104998;1261;74387;-60
2023/03/28 08:54:53;;;;;;;0.80;0.60;;;;;;;1.73;66.96;100892.55;105028;1258;69084;-59
2023/03/28 08:58:41;;;;;;;1.70;1.10;;;;;;;1.60;66.05;100902.78;104883;1268;69361;-59
2023/03/28 09:02:30;;;;;;;2.90;1.10;;;;;;;1.77;66.29;100909.29;104673;1267;73326;-59
2023/03/28 09:06:32;;;;;;;4.30;0.90;;;;;;;2.04;66.34;100905.85;104740;1262;83731;-59
2023/03/28 09:10:20;;;;;;;22.90;13.20;;;;;;;2.47;65.54;100910.20;104437;1267;74089;-58
2023/03/28 09:27:15;;;;;;;2.60;1.60;;;;;;;3.48;61.15;100930.13;103985;1273;69370;-59
2023/03/28 09:30:39;;;;;;;0.80;0.50;;;;;;;3.37;60.31;100932.70;103707;1283;69415;-54
2023/03/28 09:33:58;;;;;;;;;;;;;;;;;;;;;
2023/03/28 09:37:31;;;;;;;;;;;;;;;;;;;;;
2023/03/28 09:40:32;;;;;;;3.00;1.20;;;;;;;3.77;59.56;100939.80;104200;1269;69110;-55
2023/03/28 09:44:12;;;;;;;;;;;;;;;;;;;;;
2023/03/28 09:47:37;;;;;;;7.70;3.30;;;;;;;3.67;58.67;100937.73;104313;1270;72716;-53
2023/03/28 09:54:41;;;;;;;2.20;0.90;;;;;;;3.88;58.68;100945.50;104388;1273;73863;-56
2023/03/28 09:57:57;;;;;;;;;;;;;;;;;;;;;
2023/03/28 10:01:40;;;;;;;4.70;0.80;;;;;;;4.01;57.53;100941.16;104391;1269;69043;-55
2023/03/28 10:04:50;;;;;;;1.10;0.60;;;;;;;4.25;57.47;100940.42;104324;1269;72068;-57
2023/03/28 10:08:13;;;;;;;3.50;1.00;;;;;;;4.47;56.88;100953.33;104445;1273;83389;-54
2023/03/28 10:11:42;;;;;;;1.50;0.60;;;;;;;4.76;57.27;100967.78;104032;1275;72902;-53
2023/03/28 10:15:00;;;;;;;3.00;1.30;;;;;;;4.78;56.92;100982.66;104295;1274;69295;-54
2023/03/28 10:18:11;;;;;;;;;;;;;;;4.38;56.59;100987.96;104147;1274;69321;-55
2023/03/28 10:21:20;;;;;;;;;;;;;;;;;;;;;
2023/03/28 10:24:31;;;;;;;2.70;1.10;;;;;;;4.16;57.85;100993.55;104387;1272;82768;-56
2023/03/28 10:27:27;;;;;;;1.20;0.70;;;;;;;4.38;58.40;100993.34;104528;1272;74064;-53
2023/03/28 10:30:50;;;;;;;2.40;1.00;;;;;;;4.93;59.45;100987.27;104283;1270;69199;-55
2023/03/28 10:33:45;;;;;;;4.20;1.00;;;;;;;5.34;59.43;100993.11;104669;1265;69052;-57
2023/03/28 10:37:11;;;;;;;1.70;0.80;;;;;;;5.38;58.94;100990.84;104606;1269;73455;-58
2023/03/28 10:40:35;;;;;;;3.50;1.60;;;;;;;5.20;57.66;100999.95;104811;1267;83556;-56
2023/03/28 10:43:48;;;;;;;2.30;0.80;;;;;;;5.06;57.94;101000.36;104177;1272;73979;-55
2023/03/28 10:47:04;;;;;;;1.30;0.70;;;;;;;4.82;58.12;101004.27;104296;1276;69181;-56
2023/03/28 10:50:48;;;;;;;1.50;1.10;;;;;;;4.62;58.10;101003.31;104188;1276;69414;-56
2023/03/28 10:53:48;;;;;;;2.40;0.80;;;;;;;4.54;57.89;101017.86;103619;1283;72350;-56
2023/03/28 10:56:58;;;;;;;1.70;0.70;;;;;;;4.62;57.67;101025.46;103485;1278;82532;-54
2023/03/28 11:00:25;;;;;;;3.00;1.10;;;;;;;4.76;57.91;101039.81;104212;1276;72906;-53
2023/03/28 11:03:46;;;;;;;3.50;0.70;;;;;;;4.69;58.33;101052.46;104327;1270;69557;-56
2023/03/28 11:06:48;;;;;;;1.60;1.10;;;;;;;4.43;59.53;101061.32;103955;1274;69269;-55
2023/03/28 11:10:32;;;;;;;3.00;1.20;;;;;;;3.76;60.37;101044.21;104521;1271;72360;-55
2023/03/28 11:13:56;;;;;;;3.00;1.40;;;;;;;3.84;62.64;101045.77;104375;1266;82376;-55
2023/03/28 11:17:30;;;;;;;1.80;1.00;;;;;;;4.59;63.34;101039.67;104775;1265;72738;-58
2023/03/28 11:20:56;;;;;;;4.60;1.60;;;;;;;5.52;63.37;101024.54;104702;1266;69232;-58
2023/03/28 11:24:14;;;;;;;1.70;0.80;;;;;;;6.44;63.15;101023.30;104777;1266;69237;-58
2023/03/28 11:27:47;;;;;;;;;;;;;;;;;;;;;
2023/03/28 11:30:44;;;;;;;4.10;0.90;;;;;;;7.37;60.11;101023.06;104927;1257;83391;-56
2023/03/28 11:34:31;;;;;;;1.60;0.80;;;;;;;7.98;59.57;101025.46;105132;1257;73580;-57
2023/03/28 11:37:10;;;;;;;1.40;0.70;;;;;;;8.40;58.19;101029.12;105372;1253;69185;-58
2023/03/28 11:40:09;;;;;;;1.80;0.90;;;;;;;8.31;56.37;101016.20;105395;1259;69308;-58
2023/03/28 11:43:09;;;;;;;1.70;1.00;;;;;;;7.98;55.23;101024.77;105558;1254;72940;-58
2023/03/28 11:45:54;;;;;;;2.50;0.70;;;;;;;7.72;54.17;101028.81;105447;1253;82902;-58
2023/03/28 11:49:02;;;;;;;3.10;1.10;;;;;;;7.19;54.07;101039.30;105393;1259;71840;-59
2023/03/28 11:52:19;;;;;;;1.30;0.90;;;;;;;6.99;54.45;101045.80;105171;1254;69151;-64
2023/03/28 11:56:06;;;;;;;1.90;0.90;;;;;;;6.36;53.80;101050.98;104792;1261;69232;-60
2023/03/28 12:00:04;;;;;;;2.00;0.50;;;;;;;5.69;53.70;101054.95;104659;1265;72167;-62
2023/03/28 12:03:43;;;;;;;2.70;0.80;;;;;;;5.09;54.07;101052.31;104496;1270;83387;-61
2023/03/28 12:07:23;;;;;;;1.00;0.70;;;;;;;5.15;55.06;101050.73;103814;1274;73969;-61
2023/03/28 12:11:04;;;;;;;2.20;0.60;;;;;;;5.49;54.79;101053.16;103413;1278;69418;-61
2023/03/28 12:15:14;;;;;;;1.50;0.50;;;;;;;6.19;55.82;101054.77;103433;1279;69266;-61
2023/03/28 12:18:50;;;;;;;1.50;0.80;;;;;;;7.24;54.66;101061.83;102343;1289;74097;-61
2023/03/28 12:22:18;;;;;;;3.90;0.70;;;;;;;7.94;53.23;101051.45;102332;1289;84397;-62
2023/03/28 12:25:41;;;;;;;3.30;0.90;;;;;;;7.97;52.01;101049.32;102344;1294;73214;-60
2023/03/28 12:29:14;;;;;;;2.60;1.00;;;;;;;7.38;51.62;101061.65;101415;1304;69514;-60
2023/03/28 12:32:30;;;;;;;;;;;;;;;;;;;;;
2023/03/28 12:40:38;;;;;;;2.10;0.90;;;;;;;5.42;52.30;101093.74;102301;1290;600324;-60
2023/03/28 12:44:23;;;;;;;4.60;1.00;;;;;;;4.60;53.38;101090.38;104168;1274;69370;-63
2023/03/28 12:47:55;;;;;;;;;;;;;;;;;;;;;
2023/03/28 12:51:45;;;;;;;;;;;;;;;;;;;;;
2023/03/28 12:55:21;;;;;;;;;;;;;;;;;;;;;
2023/03/28 12:59:13;;;;;;;;;;;;;;;;;;;;;
2023/03/28 13:03:17;;;;;;;1.90;1.00;;;;;;;5.68;56.22;101088.77;100940;1310;69276;-61
2023/03/28 13:06:15;;;;;;;1.50;0.90;;;;;;;6.08;54.95;101088.35;100726;1307;73056;-62
2023/03/28 13:10:12;;;;;;;;;;;;;;;;;;;;;
2023/03/28 13:13:22;;;;;;;1.50;0.80;;;;;;;7.46;53.06;101087.66;100316;1317;74496;-60
2023/03/28 13:16:50;;;;;;;3.50;1.10;;;;;;;7.10;51.63;101091.21;102352;1291;600135;-60
2023/03/28 13:20:31;;;;;;;5.00;2.10;;;;;;;6.80;51.95;101099.19;104711;1266;69688;-61
2023/03/28 13:23:23;;;;;;;3.80;1.30;;;;;;;6.48;50.75;101102.61;103691;1281;69213;-59
2023/03/28 13:26:40;;;;;;;1.80;1.00;;;;;;;6.18;50.52;101100.60;103500;1280;72868;-61
2023/03/28 13:29:57;;;;;;;1.20;1.00;;;;;;;5.93;50.20;101100.77;99484;1278;5453409;-61
2023/03/28 13:33:21;;;;;;;;;;;;;;;;;;;;;
2023/03/28 13:36:25;;;;;;;2.20;1.60;;;;;;;6.99;50.66;101098.46;103793;1278;69396;-59
2023/03/28 13:39:49;;;;;;;3.20;1.30;;;;;;;7.61;50.08;101103.61;103616;1277;71845;-61
2023/03/28 13:43:06;;;;;;;2.00;1.10;;;;;;;7.96;48.58;101102.58;103631;1278;83488;-61
2023/03/28 13:46:02;;;;;;;1.00;0.80;;;;;;;8.06;47.55;101103.48;103502;1282;72732;-63
2023/03/28 13:49:01;;;;;;;1.90;1.00;;;;;;;8.28;47.29;101099.83;103426;1278;69231;-59
2023/03/28 13:51:55;;;;;;;4.50;0.60;;;;;;;8.44;46.86;101099.74;103580;1278;69330;-60
2023/03/28 13:54:52;;;;;;;1.90;0.80;;;;;;;8.98;46.31;101097.92;103847;1275;73394;-61
2023/03/28 13:57:30;;;;;;;4.80;2.20;;;;;;;9.40;46.16;101103.01;104085;1274;83000;-63
2023/03/28 14:00:10;;;;;;;10.10;6.10;;;;;;;9.77;45.64;101103.61;104168;1276;73417;-62
2023/03/28 14:02:53;;;;;;;2.80;1.40;;;;;;;10.18;44.58;101107.55;104413;1267;69199;-62
2023/03/28 14:05:29;;;;;;;4.80;1.30;;;;;;;10.48;44.47;101101.74;104524;1267;69221;-62
2023/03/28 14:08:19;;;;;;;5.00;1.00;;;;;;;10.51;43.60;101104.29;104534;1272;72280;-63
2023/03/28 14:10:55;;;;;;;2.40;1.00;;;;;;;10.16;42.81;101113.35;104549;1271;83494;-58
2023/03/28 14:13:29;;;;;;;1.20;0.80;;;;;;;10.28;42.76;101106.78;104512;1272;73749;-61
2023/03/28 14:16:01;;;;;;;1.50;0.60;;;;;;;10.74;42.84;101110.18;104602;1265;69222;-60
2023/03/28 14:18:43;;;;;;;0.90;0.80;;;;;;;11.21;42.47;101119.73;104820;1261;69106;-60
2023/03/28 14:21:14;;;;;;;1.40;0.80;;;;;;;11.36;40.67;101117.73;104869;1264;72546;-60
2023/03/28 14:23:56;;;;;;;1.80;0.90;;;;;;;11.39;40.53;101120.44;104837;1261;83793;-61
2023/03/28 14:26:30;;;;;;;1.30;1.10;;;;;;;11.64;40.45;101119.89;104822;1263;73586;-61
2023/03/28 14:29:13;;;;;;;6.00;4.00;;;;;;;11.80;40.02;101118.36;104781;1265;69251;-60
2023/03/28 14:31:46;;;;;;;3.20;1.80;;;;;;;12.12;40.17;101118.98;104985;1261;69211;-59
2023/03/28 14:34:26;;;;;;;1.70;1.10;;;;;;;12.32;39.77;101121.11;104949;1264;73714;-63
2023/03/28 14:37:05;;;;;;;6.40;3.30;;;;;;;12.43;39.11;101121.10;104963;1261;83392;-60
2023/03/28 14:39:36;;;;;;;7.20;3.80;;;;;;;12.66;39.07;101122.44;104969;1261;74009;-63
2023/03/28 14:42:07;;;;;;;6.60;4.30;;;;;;;13.00;38.92;101123.02;104945;1261;69369;-61
2023/03/28 14:44:40;;;;;;;3.10;1.70;;;;;;;13.19;38.69;101127.23;104988;1265;69211;-61
2023/03/28 14:47:14;;;;;;;2.80;1.90;;;;;;;13.13;37.87;101129.57;104953;1261;73307;-58
2023/03/28 14:49:44;;;;;;;2.50;1.40;;;;;;;13.03;37.38;101128.34;104953;1264;83358;-61
2023/03/28 14:52:15;;;;;;;;;;;;;;;12.98;37.31;101134.30;104932;1261;72812;-59
2023/03/28 14:54:45;;;;;;;2.20;0.90;;;;;;;13.07;37.07;101128.38;104924;1260;69134;-60
2023/03/28 14:57:15;;;;;;;1.80;1.10;;;;;;;13.25;37.03;101124.58;105006;1265;69216;-59
2023/03/28 14:59:46;;;;;;;2.20;1.10;;;;;;;13.34;36.70;101133.90;104929;1262;74674;-60
2023/03/28 15:02:23;;;;;;;2.10;1.30;;;;;;;13.31;36.34;101135.44;104899;1264;83568;-61
2023/03/28 15:04:53;;;;;;;5.80;3.40;;;;;;;13.43;36.16;101134.30;104928;1262;73696;-60
2023/03/28 15:07:25;;;;;;;3.40;1.30;;;;;;;13.41;35.96;101138.75;104912;1265;69226;-59
2023/03/28 15:10:03;;;;;;;3.20;1.00;;;;;;;13.27;35.52;101143.98;104962;1261;69223;-62
2023/03/28 15:12:41;;;;;;;2.00;1.00;;;;;;;13.24;34.80;101148.67;104950;1260;73018;-60
2023/03/28 15:15:37;;;;;;;1.90;1.10;;;;;;;13.05;34.51;101150.04;104935;1261;83282;-61
2023/03/28 15:18:10;;;;;;;2.30;0.90;;;;;;;13.18;34.87;101154.83;104941;1259;72125;-59
2023/03/28 15:20:42;;;;;;;1.10;0.70;;;;;;;13.24;34.75;101150.58;104990;1264;69139;-61
2023/03/28 15:23:24;;;;;;;1.90;1.10;;;;;;;13.18;34.41;101157.48;105057;1259;69187;-59
2023/03/28 15:25:56;;;;;;;5.80;2.90;;;;;;;13.06;34.25;101162.80;104965;1259;73280;-59
2023/03/28 15:28:26;;;;;;;2.70;1.50;;;;;;;13.02;34.14;101159.25;105018;1264;83561;-60
2023/03/28 15:30:57;;;;;;;1.10;1.00;;;;;;;13.09;34.01;101158.33;104805;1265;71852;-61
2023/03/28 15:33:26;;;;;;;1.60;1.00;;;;;;;12.90;33.53;101161.09;105020;1260;69189;-61
2023/03/28 15:36:16;;;;;;;2.10;0.80;;;;;;;12.71;33.46;101161.57;105070;1264;69231;-60
2023/03/28 15:38:48;;;;;;;1.70;0.80;;;;;;;12.37;33.20;101170.04;105566;1253;73559;-61
2023/03/28 15:41:24;;;;;;;4.00;3.10;;;;;;;12.21;33.28;101166.67;105635;1255;83428;-59
2023/03/28 15:43:58;;;;;;;2.30;1.70;;;;;;;12.01;32.98;101173.09;105560;1255;73068;-59
2023/03/28 15:46:45;;;;;;;2.40;1.70;;;;;;;11.72;33.27;101174.44;105551;1252;69479;-58
2023/03/28 15:49:17;;;;;;;4.10;1.10;;;;;;;11.45;33.67;101171.71;105542;1256;69180;-60
2023/03/28 15:52:08;;;;;;;3.90;3.00;;;;;;;11.12;33.59;101173.88;105590;1256;73271;-60
2023/03/28 15:54:44;;;;;;;5.60;2.80;;;;;;;10.67;33.97;101174.16;105589;1253;83603;-61
2023/03/28 15:57:38;;;;;;;3.90;3.10;;;;;;;10.25;33.89;101177.58;105492;1256;73928;-59
2023/03/28 16:00:39;;;;;;;3.40;2.70;;;;;;;9.70;33.82;101179.48;105556;1256;69109;-61
2023/03/28 16:03:34;;;;;;;2.10;1.50;;;;;;;9.14;33.96;101185.99;105573;1255;69244;-57
2023/03/28 16:06:31;;;;;;;3.10;1.50;;;;;;;8.67;34.03;101191.70;105518;1253;73242;-58
2023/03/28 16:09:26;;;;;;;5.00;2.10;;;;;;;8.29;33.80;101203.59;105108;1257;83348;-59
2023/03/28 16:12:34;;;;;;;1.90;0.70;;;;;;;7.88;33.96;101204.50;105076;1259;73816;-56
2023/03/28 16:16:07;;;;;;;2.40;1.00;;;;;;;7.44;33.53;101206.07;104706;1263;69249;-59
2023/03/28 16:19:35;;;;;;;1.00;0.70;;;;;;;7.13;33.64;101211.27;105112;1262;69250;-56
2023/03/28 16:22:34;;;;;;;4.40;0.90;;;;;;;6.87;33.33;101211.86;105137;1262;72230;-62
2023/03/28 16:25:44;;;;;;;1.90;1.00;;;;;;;6.76;33.95;101211.95;105108;1260;83346;-57
2023/03/28 16:29:10;;;;;;;3.00;1.20;;;;;;;6.71;34.44;101217.21;105088;1260;73851;-59
2023/03/28 16:32:05;;;;;;;;;;;;;;;;;;;;;
2023/03/28 16:35:08;;;;;;;1.60;1.10;;;;;;;6.55;34.39;101221.67;105073;1262;69612;-61
2023/03/28 16:38:23;;;;;;;;;;;;;;;;;;;;;
2023/03/28 16:41:47;;;;;;;3.30;2.20;;;;;;;6.13;34.83;101231.14;105102;1262;83418;-60
2023/03/28 16:45:13;;;;;;;2.30;1.40;;;;;;;5.80;35.05;101228.66;105066;1260;73723;-58
2023/03/28 16:48:36;;;;;;;;;;;;;;;;;;;;;
2023/03/28 16:51:52;;;;;;;;;;;;;;;;;;;;;
2023/03/28 16:55:37;;;;;;;12.80;8.10;;;;;;;4.81;35.04;101251.02;105358;1253;71476;-58
2023/03/28 16:59:26;;;;;;;19.40;10.70;;;;;;;4.52;35.55;101253.42;105417;1255;83624;-60
2023/03/28 17:02:57;;;;;;;;;;;;;;;;;;;;;
2023/03/28 17:06:47;;;;;;;5.90;3.20;;;;;;;4.15;36.23;101256.64;105453;1253;69280;-63
2023/03/28 17:10:34;;;;;;;8.30;4.30;;;;;;;3.96;36.42;101259.68;105327;1253;69479;-60
2023/03/28 17:14:00;;;;;;;;;;;;;;;;;;;;;
2023/03/28 17:17:50;;;;;;;9.60;7.00;;;;;;;3.60;36.90;101268.67;105025;1256;83549;-58
2023/03/28 17:21:40;;;;;;;;;;;;;;;;;;;;;
2023/03/28 17:25:24;;;;;;;16.00;9.70;;;;;;;3.27;37.85;101271.23;105185;1258;69217;-57
2023/03/28 17:29:14;;;;;;;7.40;4.30;;;;;;;3.16;37.94;101272.55;105148;1263;69173;-58
2023/03/28 17:32:24;;;;;;;;;;;;;;;3.03;38.39;101270.70;105208;1256;73361;-58
2023/03/28 17:39:59;;;;;;;15.70;8.20;;;;;;;2.69;38.88;101278.02;105145;1258;73733;-59
2023/03/28 17:43:48;;;;;;;6.00;4.40;;;;;;;2.54;39.42;101281.48;105183;1254;69137;-57
2023/03/28 17:51:35;;;;;;;4.70;3.20;;;;;;;2.17;41.17;101288.87;105189;1258;73464;-60
2023/03/28 17:55:24;;;;;;;5.70;3.30;;;;;;;1.94;41.86;101294.98;104967;1256;82485;-61
2023/03/28 17:59:04;;;;;;;;;;;;;;;;;;;;;
2023/03/28 18:02:47;;;;;;;;;;;;;;;;;;;;;
2023/03/28 18:06:37;;;;;;;5.30;2.40;;;;;;;1.30;44.62;101308.37;105180;1254;69111;-61
2023/03/28 18:10:20;;;;;;;4.50;2.60;;;;;;;1.09;44.80;101314.41;105342;1258;73216;-60
2023/03/28 18:13:57;;;;;;;;;;;;;;;;;;;;;
2023/03/28 18:17:48;;;;;;;5.30;3.30;;;;;;;0.85;44.37;101316.91;105361;1253;72012;-59
2023/03/28 18:21:35;;;;;;;;;;;;;;;;;;;;;
2023/03/28 18:25:00;;;;;;;;;;;;;;;0.51;45.78;101324.05;105307;1255;69092;-60
2023/03/28 18:28:46;;;;;;;7.50;2.60;;;;;;;0.43;45.72;101324.41;105393;1253;74177;-62
2023/03/28 18:32:36;;;;;;;7.70;3.10;;;;;;;0.29;46.23;101327.07;105338;1253;83466;-60
2023/03/28 18:36:28;;;;;;;8.70;3.00;;;;;;;0.12;46.66;101325.86;105258;1253;73267;-58
2023/03/28 18:43:59;;;;;;;;;;;;;;;;;;;;;
2023/03/28 18:47:45;;;;;;;6.40;2.70;;;;;;;-0.13;48.53;101330.66;105331;1256;73329;-59
2023/03/28 18:51:34;;;;;;;7.10;3.90;;;;;;;-0.26;48.27;101331.77;105339;1255;83517;-59
2023/03/28 18:55:03;;;;;;;9.40;4.60;;;;;;;-0.27;47.58;101333.63;105350;1253;74028;-59
2023/03/28 18:58:51;;;;;;;6.80;3.30;;;;;;;-0.31;47.06;101339.89;105391;1253;69249;-58
2023/03/28 19:02:40;;;;;;;5.80;2.30;;;;;;;-0.42;47.14;101339.29;105454;1253;69170;-60
2023/03/28 19:06:21;;;;;;;;;;;;;;;;;;;;;
2023/03/28 19:13:57;;;;;;;5.00;2.40;;;;;;;-0.73;50.97;101335.83;105381;1253;73911;-61
2023/03/28 19:17:46;;;;;;;5.40;2.50;;;;;;;-0.85;51.14;101334.67;105344;1257;69225;-61
2023/03/28 19:21:36;;;;;;;4.60;2.50;;;;;;;-0.99;51.70;101333.50;105404;1251;69122;-60
2023/03/28 19:29:00;;;;;;;6.20;2.80;;;;;;;-1.18;51.80;101332.81;105419;1255;83432;-60
2023/03/28 19:32:41;;;;;;;;;;;;;;;;;;;;;
2023/03/28 19:36:31;;;;;;;5.20;2.50;;;;;;;-1.35;52.41;101333.75;105465;1253;69202;-61
2023/03/28 19:40:20;;;;;;;8.00;3.40;;;;;;;-1.40;53.64;101333.09;105468;1253;69263;-64
2023/03/28 19:44:10;;;;;;;13.40;4.60;;;;;;;-1.52;53.89;101334.85;105425;1255;73970;-61
2023/03/28 19:51:48;;;;;;;32.10;11.00;;;;;;;-1.72;54.32;101337.38;104909;1262;73889;-58
2023/03/28 19:55:36;;;;;;;37.60;11.50;;;;;;;-1.76;53.32;101338.98;104951;1262;69285;-60
2023/03/28 19:59:25;;;;;;;32.30;11.20;;;;;;;-1.73;53.73;101336.32;104920;1263;69377;-60
2023/03/28 20:03:06;;;;;;;;;;;;;;;;;;;;;
2023/03/28 20:06:57;;;;;;;38.60;13.80;;;;;;;-1.80;55.11;101331.14;104876;1258;83407;-61
2023/03/28 20:10:38;;;;;;;;;;;;;;;;;;;;;
2023/03/28 20:14:20;;;;;;;;;;;;;;;;;;;;;
2023/03/28 20:18:13;;;;;;;52.30;16.10;;;;;;;-2.04;55.17;101327.20;105001;1262;69237;-60